Etusivu
METAR-TAF:

METAR-TAF

Lentoasemat :

Albert Lea, Minnesota, Yhdysvallat

Leveyspiiri: 43-41N, Pituuspiiri: 093-22W, korkeus merenpinnasta: 383 m

Tämänhetkinen sää

Tämä raportti tehtiin 12 minuuttia sitten, kello 09.15 UTC
Tuuli 11 kn etelästä puuskistuen 18 kn:hen
Lämpötila -3°C
Kosteus 100%
Ilmanpaine 1014 hPa
Näkyvyys: 6.4 km
Hajonneita pilviä 2100 ft:n korkeudessa
Pilvistä 4800 ft:n korkeudessa
tuntematon

METAR: KAEL 220915Z AUTO 19011G18KT 4SM UP BKN021 OVC048 M03/M03 A2994 RMK AO2

Aika: 03:27 (09:27 UTC)


TAF: puuttuu

Säähavainnot ja -ennusteet yli 4000 lentoasemalta (METAR- ja TAF-raportit).

Käytössä olevat sääasemat on merkitty karttaan keltaisilla ja punaisilla pisteillä.

Aseta hiiri pisteen päälle nähdäksesi sääaseman nimen.

Klikkaa sitten nähdäksesi säähavainnot ja -ennusteet.

Kartan vaihtaminen: klikkaa mustalla rastilla varustettuja vihreitä pisteitä, niin voit zoomata sisään; viivalla varustettua vihreää pistettä, niin voit zoomata ulos tai vihreitä nuolia, niin pääset viereisille kartoille.


METAR-TAF: